sensor_id;sensor_type;location;lat;lon;timestamp;pressure;altitude;pressure_sealevel;temperature;humidity
61037;BME280;72210;47.076;15.430;2023-10-09T00:01:30;98250.53;;;10.36;100.00
61037;BME280;72210;47.076;15.430;2023-10-09T00:03:57;98260.66;;;10.43;100.00
61037;BME280;72210;47.076;15.430;2023-10-09T00:06:24;98263.28;;;10.43;100.00
61037;BME280;72210;47.076;15.430;2023-10-09T00:08:51;98257.94;;;10.46;100.00
61037;BME280;72210;47.076;15.430;2023-10-09T00:11:18;98258.75;;;10.46;100.00
61037;BME280;72210;47.076;15.430;2023-10-09T00:13:48;98256.28;;;10.43;100.00
61037;BME280;72210;47.076;15.430;2023-10-09T00:16:15;98254.66;;;10.40;100.00
61037;BME280;72210;47.076;15.430;2023-10-09T00:18:43;98239.84;;;10.43;100.00
61037;BME280;72210;47.076;15.430;2023-10-09T00:21:14;98217.09;;;10.46;100.00
61037;BME280;72210;47.076;15.430;2023-10-09T00:23:41;98201.00;;;10.38;100.00
61037;BME280;72210;47.076;15.430;2023-10-09T00:26:09;98189.06;;;10.32;100.00
61037;BME280;72210;47.076;15.430;2023-10-09T00:28:36;98188.44;;;10.27;100.00
61037;BME280;72210;47.076;15.430;2023-10-09T00:31:06;98198.19;;;10.22;100.00
61037;BME280;72210;47.076;15.430;2023-10-09T00:33:33;98192.91;;;10.23;100.00
61037;BME280;72210;47.076;15.430;2023-10-09T00:36:04;98196.22;;;10.27;100.00
61037;BME280;72210;47.076;15.430;2023-10-09T00:38:31;98191.78;;;10.29;100.00
61037;BME280;72210;47.076;15.430;2023-10-09T00:40:58;98209.19;;;10.29;100.00
61037;BME280;72210;47.076;15.430;2023-10-09T00:43:25;98199.66;;;10.28;100.00
61037;BME280;72210;47.076;15.430;2023-10-09T00:45:52;98205.66;;;10.30;100.00
61037;BME280;72210;47.076;15.430;2023-10-09T00:48:21;98191.78;;;10.29;100.00
61037;BME280;72210;47.076;15.430;2023-10-09T00:50:49;98174.53;;;10.27;100.00
61037;BME280;72210;47.076;15.430;2023-10-09T00:53:16;98166.88;;;10.23;100.00
61037;BME280;72210;47.076;15.430;2023-10-09T00:55:43;98151.75;;;10.32;100.00
61037;BME280;72210;47.076;15.430;2023-10-09T00:58:12;98152.00;;;10.46;100.00
61037;BME280;72210;47.076;15.430;2023-10-09T01:00:40;98137.69;;;10.55;100.00
61037;BME280;72210;47.076;15.430;2023-10-09T01:03:07;98142.75;;;10.58;100.00
61037;BME280;72210;47.076;15.430;2023-10-09T01:05:36;98137.38;;;10.61;100.00
61037;BME280;72210;47.076;15.430;2023-10-09T01:08:04;98113.41;;;10.54;100.00
61037;BME280;72210;47.076;15.430;2023-10-09T01:10:44;98124.44;;;10.59;100.00
61037;BME280;72210;47.076;15.430;2023-10-09T01:13:11;98142.38;;;10.66;100.00
61037;BME280;72210;47.076;15.430;2023-10-09T01:15:39;98136.13;;;10.70;100.00
61037;BME280;72210;47.076;15.430;2023-10-09T01:18:06;98133.13;;;10.77;100.00
61037;BME280;72210;47.076;15.430;2023-10-09T01:20:33;98124.94;;;10.85;100.00
61037;BME280;72210;47.076;15.430;2023-10-09T01:23:02;98115.28;;;10.87;100.00
61037;BME280;72210;47.076;15.430;2023-10-09T01:25:30;98109.31;;;10.85;100.00
61037;BME280;72210;47.076;15.430;2023-10-09T01:27:57;98114.38;;;10.88;100.00
61037;BME280;72210;47.076;15.430;2023-10-09T01:30:24;98117.53;;;10.95;100.00
61037;BME280;72210;47.076;15.430;2023-10-09T01:32:51;98106.56;;;11.06;100.00
61037;BME280;72210;47.076;15.430;2023-10-09T01:35:18;98088.94;;;11.11;100.00
61037;BME280;72210;47.076;15.430;2023-10-09T01:37:45;98105.13;;;11.18;100.00
61037;BME280;72210;47.076;15.430;2023-10-09T01:40:15;98103.03;;;11.24;100.00
61037;BME280;72210;47.076;15.430;2023-10-09T01:42:42;98097.75;;;11.26;100.00
61037;BME280;72210;47.076;15.430;2023-10-09T01:45:09;98074.59;;;11.20;100.00
61037;BME280;72210;47.076;15.430;2023-10-09T01:47:36;98071.31;;;11.16;100.00
61037;BME280;72210;47.076;15.430;2023-10-09T01:50:04;98070.63;;;11.12;100.00
61037;BME280;72210;47.076;15.430;2023-10-09T01:52:32;98062.88;;;11.11;100.00
61037;BME280;72210;47.076;15.430;2023-10-09T01:54:59;98062.81;;;11.12;100.00
61037;BME280;72210;47.076;15.430;2023-10-09T01:57:27;98061.88;;;11.13;100.00
61037;BME280;72210;47.076;15.430;2023-10-09T01:59:55;98052.06;;;11.19;100.00
61037;BME280;72210;47.076;15.430;2023-10-09T02:02:22;98063.00;;;11.25;100.00
61037;BME280;72210;47.076;15.430;2023-10-09T02:04:49;98055.88;;;11.29;100.00
61037;BME280;72210;47.076;15.430;2023-10-09T02:07:16;98050.41;;;11.34;100.00
61037;BME280;72210;47.076;15.430;2023-10-09T02:09:43;98038.13;;;11.36;100.00
61037;BME280;72210;47.076;15.430;2023-10-09T02:12:11;98045.19;;;11.34;100.00
61037;BME280;72210;47.076;15.430;2023-10-09T02:14:39;98061.09;;;11.29;100.00
61037;BME280;72210;47.076;15.430;2023-10-09T02:17:07;98048.50;;;11.20;100.00
61037;BME280;72210;47.076;15.430;2023-10-09T02:19:34;98046.16;;;11.15;100.00
61037;BME280;72210;47.076;15.430;2023-10-09T02:22:01;98047.31;;;11.09;100.00
61037;BME280;72210;47.076;15.430;2023-10-09T02:24:28;98058.50;;;11.11;100.00
61037;BME280;72210;47.076;15.430;2023-10-09T02:26:55;98056.56;;;11.15;100.00
61037;BME280;72210;47.076;15.430;2023-10-09T02:29:22;98051.91;;;11.22;100.00
61037;BME280;72210;47.076;15.430;2023-10-09T02:31:51;98050.66;;;11.29;100.00
61037;BME280;72210;47.076;15.430;2023-10-09T02:34:18;98042.16;;;11.25;100.00
61037;BME280;72210;47.076;15.430;2023-10-09T02:36:46;98044.84;;;11.24;100.00
61037;BME280;72210;47.076;15.430;2023-10-09T02:39:13;98047.38;;;11.25;100.00
61037;BME280;72210;47.076;15.430;2023-10-09T02:41:40;98040.13;;;11.30;100.00
61037;BME280;72210;47.076;15.430;2023-10-09T02:44:07;98027.25;;;11.27;100.00
61037;BME280;72210;47.076;15.430;2023-10-09T02:46:34;98038.44;;;11.29;100.00
61037;BME280;72210;47.076;15.430;2023-10-09T02:49:02;98040.53;;;11.23;100.00
61037;BME280;72210;47.076;15.430;2023-10-09T02:51:30;98031.13;;;11.20;100.00
61037;BME280;72210;47.076;15.430;2023-10-09T02:53:59;98035.56;;;11.18;100.00
61037;BME280;72210;47.076;15.430;2023-10-09T02:56:27;98040.03;;;11.16;100.00
61037;BME280;72210;47.076;15.430;2023-10-09T02:58:55;98039.34;;;11.12;100.00
61037;BME280;72210;47.076;15.430;2023-10-09T03:01:21;98039.50;;;11.09;100.00
61037;BME280;72210;47.076;15.430;2023-10-09T03:03:49;98040.41;;;11.08;100.00
61037;BME280;72210;47.076;15.430;2023-10-09T03:06:17;98034.13;;;11.12;100.00
61037;BME280;72210;47.076;15.430;2023-10-09T03:08:44;98029.44;;;11.19;100.00
61037;BME280;72210;47.076;15.430;2023-10-09T03:11:11;98030.63;;;11.29;100.00
61037;BME280;72210;47.076;15.430;2023-10-09T03:13:42;98028.31;;;11.41;100.00
61037;BME280;72210;47.076;15.430;2023-10-09T03:16:10;98023.69;;;11.46;100.00
61037;BME280;72210;47.076;15.430;2023-10-09T03:18:38;98018.41;;;11.47;100.00
61037;BME280;72210;47.076;15.430;2023-10-09T03:21:05;98021.91;;;11.46;100.00
61037;BME280;72210;47.076;15.430;2023-10-09T03:23:33;98011.41;;;11.48;100.00
61037;BME280;72210;47.076;15.430;2023-10-09T03:26:01;98010.41;;;11.50;100.00
61037;BME280;72210;47.076;15.430;2023-10-09T03:28:47;98007.47;;;11.57;100.00
61037;BME280;72210;47.076;15.430;2023-10-09T03:31:14;98009.91;;;11.60;100.00
61037;BME280;72210;47.076;15.430;2023-10-09T03:33:42;97998.72;;;11.58;100.00
61037;BME280;72210;47.076;15.430;2023-10-09T03:36:09;97993.34;;;11.61;100.00
61037;BME280;72210;47.076;15.430;2023-10-09T03:38:39;97994.44;;;11.57;100.00
61037;BME280;72210;47.076;15.430;2023-10-09T03:41:06;97994.59;;;11.54;100.00
61037;BME280;72210;47.076;15.430;2023-10-09T03:43:33;97996.38;;;11.53;100.00
61037;BME280;72210;47.076;15.430;2023-10-09T03:46:01;97981.72;;;11.50;100.00
61037;BME280;72210;47.076;15.430;2023-10-09T03:48:28;97979.69;;;11.40;100.00
61037;BME280;72210;47.076;15.430;2023-10-09T03:50:54;97970.91;;;11.25;100.00
61037;BME280;72210;47.076;15.430;2023-10-09T03:53:22;97970.88;;;11.09;100.00
61037;BME280;72210;47.076;15.430;2023-10-09T03:55:51;97963.84;;;10.93;100.00
61037;BME280;72210;47.076;15.430;2023-10-09T03:58:18;97972.19;;;10.83;100.00
61037;BME280;72210;47.076;15.430;2023-10-09T04:00:45;97976.06;;;10.75;100.00
61037;BME280;72210;47.076;15.430;2023-10-09T04:03:13;97972.22;;;10.65;100.00
61037;BME280;72210;47.076;15.430;2023-10-09T04:05:41;97972.44;;;10.60;100.00
61037;BME280;72210;47.076;15.430;2023-10-09T04:08:08;97970.22;;;10.53;100.00
61037;BME280;72210;47.076;15.430;2023-10-09T04:10:35;97970.59;;;10.45;100.00
61037;BME280;72210;47.076;15.430;2023-10-09T04:13:04;97957.75;;;10.42;100.00
61037;BME280;72210;47.076;15.430;2023-10-09T04:15:31;97961.34;;;10.39;100.00
61037;BME280;72210;47.076;15.430;2023-10-09T04:17:58;97954.69;;;10.34;100.00
61037;BME280;72210;47.076;15.430;2023-10-09T04:20:25;97946.88;;;10.34;100.00
61037;BME280;72210;47.076;15.430;2023-10-09T04:22:52;97949.59;;;10.31;100.00
61037;BME280;72210;47.076;15.430;2023-10-09T04:25:20;97952.44;;;10.26;100.00
61037;BME280;72210;47.076;15.430;2023-10-09T04:27:47;97936.06;;;10.24;100.00
61037;BME280;72210;47.076;15.430;2023-10-09T04:30:16;97942.91;;;10.25;100.00
61037;BME280;72210;47.076;15.430;2023-10-09T04:32:43;97943.06;;;10.22;100.00
61037;BME280;72210;47.076;15.430;2023-10-09T04:35:11;97933.75;;;10.18;100.00
61037;BME280;72210;47.076;15.430;2023-10-09T04:37:38;97943.38;;;10.16;100.00
61037;BME280;72210;47.076;15.430;2023-10-09T04:40:08;97938.31;;;10.13;100.00
61037;BME280;72210;47.076;15.430;2023-10-09T04:42:35;97940.31;;;10.07;100.00
61037;BME280;72210;47.076;15.430;2023-10-09T04:45:04;97937.78;;;10.06;100.00
61037;BME280;72210;47.076;15.430;2023-10-09T04:47:33;97939.84;;;9.99;100.00
61037;BME280;72210;47.076;15.430;2023-10-09T04:50:00;97936.44;;;9.97;100.00
61037;BME280;72210;47.076;15.430;2023-10-09T04:52:29;97933.84;;;9.97;100.00
61037;BME280;72210;47.076;15.430;2023-10-09T04:54:57;97932.25;;;9.95;100.00
61037;BME280;72210;47.076;15.430;2023-10-09T04:57:24;97913.25;;;9.93;100.00
61037;BME280;72210;47.076;15.430;2023-10-09T04:59:52;97915.09;;;9.91;100.00
61037;BME280;72210;47.076;15.430;2023-10-09T05:02:19;97920.38;;;9.89;100.00
61037;BME280;72210;47.076;15.430;2023-10-09T05:04:48;97915.84;;;9.93;100.00
61037;BME280;72210;47.076;15.430;2023-10-09T05:07:15;97922.00;;;9.92;100.00
61037;BME280;72210;47.076;15.430;2023-10-09T05:09:42;97928.25;;;9.87;100.00
61037;BME280;72210;47.076;15.430;2023-10-09T05:12:12;97917.00;;;9.87;100.00
61037;BME280;72210;47.076;15.430;2023-10-09T05:14:39;97892.50;;;9.91;100.00
61037;BME280;72210;47.076;15.430;2023-10-09T05:17:07;97889.91;;;9.91;100.00
61037;BME280;72210;47.076;15.430;2023-10-09T05:19:34;97883.03;;;9.90;100.00
61037;BME280;72210;47.076;15.430;2023-10-09T05:22:02;97888.25;;;9.90;100.00
61037;BME280;72210;47.076;15.430;2023-10-09T05:24:30;97870.88;;;9.91;100.00
61037;BME280;72210;47.076;15.430;2023-10-09T05:26:57;97884.09;;;9.86;100.00
61037;BME280;72210;47.076;15.430;2023-10-09T05:29:25;97883.25;;;9.85;100.00
61037;BME280;72210;47.076;15.430;2023-10-09T05:31:52;97894.13;;;9.94;100.00
61037;BME280;72210;47.076;15.430;2023-10-09T05:34:20;97885.28;;;9.98;100.00
61037;BME280;72210;47.076;15.430;2023-10-09T05:36:47;97880.75;;;10.01;100.00
61037;BME280;72210;47.076;15.430;2023-10-09T05:39:16;97877.00;;;10.07;100.00
61037;BME280;72210;47.076;15.430;2023-10-09T05:41:44;97858.00;;;10.05;100.00
61037;BME280;72210;47.076;15.430;2023-10-09T05:44:11;97854.50;;;10.06;100.00
61037;BME280;72210;47.076;15.430;2023-10-09T05:46:39;97863.06;;;10.08;100.00
61037;BME280;72210;47.076;15.430;2023-10-09T05:49:06;97862.22;;;10.07;100.00
61037;BME280;72210;47.076;15.430;2023-10-09T05:51:35;97854.13;;;10.14;100.00
61037;BME280;72210;47.076;15.430;2023-10-09T05:54:03;97854.78;;;10.17;100.00
61037;BME280;72210;47.076;15.430;2023-10-09T05:56:31;97838.94;;;10.22;100.00
61037;BME280;72210;47.076;15.430;2023-10-09T05:58:58;97856.09;;;10.26;100.00
61037;BME280;72210;47.076;15.430;2023-10-09T06:01:26;97841.94;;;10.32;100.00
61037;BME280;72210;47.076;15.430;2023-10-09T06:03:53;97839.66;;;10.43;100.00
61037;BME280;72210;47.076;15.430;2023-10-09T06:06:21;97826.47;;;10.46;100.00
61037;BME280;72210;47.076;15.430;2023-10-09T06:08:49;97835.41;;;10.58;100.00
61037;BME280;72210;47.076;15.430;2023-10-09T06:11:16;97834.00;;;10.68;100.00
61037;BME280;72210;47.076;15.430;2023-10-09T06:13:45;97831.53;;;10.99;100.00
61037;BME280;72210;47.076;15.430;2023-10-09T06:16:12;97826.00;;;11.21;100.00
61037;BME280;72210;47.076;15.430;2023-10-09T06:18:39;97839.03;;;11.21;100.00
61037;BME280;72210;47.076;15.430;2023-10-09T06:21:07;97834.97;;;11.15;100.00
61037;BME280;72210;47.076;15.430;2023-10-09T06:23:34;97842.31;;;11.08;100.00
61037;BME280;72210;47.076;15.430;2023-10-09T06:26:01;97831.72;;;11.11;100.00
61037;BME280;72210;47.076;15.430;2023-10-09T06:28:28;97836.59;;;11.18;100.00
61037;BME280;72210;47.076;15.430;2023-10-09T06:30:57;97826.50;;;11.27;100.00
61037;BME280;72210;47.076;15.430;2023-10-09T06:33:24;97821.69;;;11.36;100.00
61037;BME280;72210;47.076;15.430;2023-10-09T06:35:52;97811.09;;;11.39;100.00
61037;BME280;72210;47.076;15.430;2023-10-09T06:38:19;97809.00;;;11.45;100.00
61037;BME280;72210;47.076;15.430;2023-10-09T06:40:48;97799.22;;;11.49;100.00
61037;BME280;72210;47.076;15.430;2023-10-09T06:43:16;97799.88;;;11.53;100.00
61037;BME280;72210;47.076;15.430;2023-10-09T06:45:43;97797.09;;;11.56;100.00
61037;BME280;72210;47.076;15.430;2023-10-09T06:48:13;97802.91;;;11.61;100.00
61037;BME280;72210;47.076;15.430;2023-10-09T06:50:40;97798.81;;;11.71;100.00
61037;BME280;72210;47.076;15.430;2023-10-09T06:53:08;97794.50;;;11.86;100.00
61037;BME280;72210;47.076;15.430;2023-10-09T06:55:35;97774.91;;;11.95;100.00
61037;BME280;72210;47.076;15.430;2023-10-09T06:58:03;97779.16;;;11.96;100.00
61037;BME280;72210;47.076;15.430;2023-10-09T07:00:30;97773.50;;;12.03;100.00
61037;BME280;72210;47.076;15.430;2023-10-09T07:02:57;97764.84;;;12.17;100.00
61037;BME280;72210;47.076;15.430;2023-10-09T07:05:26;97768.31;;;12.32;100.00
61037;BME280;72210;47.076;15.430;2023-10-09T07:07:53;97768.31;;;12.47;100.00
61037;BME280;72210;47.076;15.430;2023-10-09T07:10:20;97766.38;;;12.65;100.00
61037;BME280;72210;47.076;15.430;2023-10-09T07:12:47;97754.28;;;12.77;100.00
61037;BME280;72210;47.076;15.430;2023-10-09T07:15:15;97750.38;;;12.84;100.00
61037;BME280;72210;47.076;15.430;2023-10-09T07:17:42;97740.25;;;12.92;100.00
61037;BME280;72210;47.076;15.430;2023-10-09T07:20:10;97724.66;;;12.90;100.00
61037;BME280;72210;47.076;15.430;2023-10-09T07:22:39;97727.44;;;13.02;100.00
61037;BME280;72210;47.076;15.430;2023-10-09T07:25:07;97721.91;;;13.06;100.00
61037;BME280;72210;47.076;15.430;2023-10-09T07:27:34;97726.56;;;13.16;100.00
61037;BME280;72210;47.076;15.430;2023-10-09T07:30:01;97713.28;;;13.33;100.00
61037;BME280;72210;47.076;15.430;2023-10-09T07:32:28;97716.97;;;13.56;100.00
61037;BME280;72210;47.076;15.430;2023-10-09T07:34:55;97715.31;;;13.68;100.00
61037;BME280;72210;47.076;15.430;2023-10-09T07:37:23;97706.44;;;13.71;100.00
61037;BME280;72210;47.076;15.430;2023-10-09T07:39:52;97694.06;;;13.73;100.00
61037;BME280;72210;47.076;15.430;2023-10-09T07:42:19;97698.69;;;13.82;100.00
61037;BME280;72210;47.076;15.430;2023-10-09T07:44:47;97690.31;;;13.90;100.00
61037;BME280;72210;47.076;15.430;2023-10-09T07:47:14;97684.13;;;14.04;100.00
61037;BME280;72210;47.076;15.430;2023-10-09T07:49:41;97678.59;;;14.08;95.91
61037;BME280;72210;47.076;15.430;2023-10-09T07:52:08;97688.63;;;14.14;97.45
61037;BME280;72210;47.076;15.430;2023-10-09T07:54:35;97683.66;;;14.35;100.00
61037;BME280;72210;47.076;15.430;2023-10-09T07:57:04;97692.34;;;14.62;98.39
61037;BME280;72210;47.076;15.430;2023-10-09T07:59:31;97680.31;;;14.83;95.44
61037;BME280;72210;47.076;15.430;2023-10-09T08:01:58;97670.94;;;15.16;93.00
61037;BME280;72210;47.076;15.430;2023-10-09T08:04:26;97671.31;;;15.47;88.33
61037;BME280;72210;47.076;15.430;2023-10-09T08:06:53;97662.25;;;15.51;84.16
61037;BME280;72210;47.076;15.430;2023-10-09T08:09:40;97663.81;;;15.54;83.20
61037;BME280;72210;47.076;15.430;2023-10-09T08:12:09;97661.22;;;15.65;82.67
61037;BME280;72210;47.076;15.430;2023-10-09T08:14:37;97645.41;;;15.89;81.04
61037;BME280;72210;47.076;15.430;2023-10-09T08:17:04;97639.56;;;16.20;79.50
61037;BME280;72210;47.076;15.430;2023-10-09T08:19:31;97635.00;;;16.44;77.98
61037;BME280;72210;47.076;15.430;2023-10-09T08:21:58;97625.16;;;16.69;75.78
61037;BME280;72210;47.076;15.430;2023-10-09T08:24:25;97635.38;;;16.95;73.71
61037;BME280;72210;47.076;15.430;2023-10-09T08:26:53;97636.38;;;17.15;72.58
61037;BME280;72210;47.076;15.430;2023-10-09T08:29:21;97631.72;;;17.39;70.30
61037;BME280;72210;47.076;15.430;2023-10-09T08:31:48;97632.03;;;17.46;67.47
61037;BME280;72210;47.076;15.430;2023-10-09T08:34:15;97617.19;;;17.66;66.46
61037;BME280;72210;47.076;15.430;2023-10-09T08:37:02;97625.72;;;17.80;63.88
61037;BME280;72210;47.076;15.430;2023-10-09T08:39:29;97622.91;;;17.92;62.89
61037;BME280;72210;47.076;15.430;2023-10-09T08:41:57;97613.75;;;18.27;61.79
61037;BME280;72210;47.076;15.430;2023-10-09T08:44:26;97616.19;;;18.60;59.92
61037;BME280;72210;47.076;15.430;2023-10-09T08:46:54;97619.47;;;18.93;58.08
61037;BME280;72210;47.076;15.430;2023-10-09T08:49:25;97613.88;;;19.54;56.32
61037;BME280;72210;47.076;15.430;2023-10-09T08:51:53;97611.78;;;20.33;52.62
61037;BME280;72210;47.076;15.430;2023-10-09T08:54:21;97599.28;;;20.81;50.75
61037;BME280;72210;47.076;15.430;2023-10-09T08:56:48;97592.78;;;20.93;49.13
61037;BME280;72210;47.076;15.430;2023-10-09T08:59:16;97606.53;;;20.79;49.27
61037;BME280;72210;47.076;15.430;2023-10-09T09:01:45;97597.16;;;20.85;49.50
61037;BME280;72210;47.076;15.430;2023-10-09T09:04:33;97587.50;;;21.38;48.33
61037;BME280;72210;47.076;15.430;2023-10-09T09:07:01;97595.59;;;21.36;47.68
61037;BME280;72210;47.076;15.430;2023-10-09T09:09:28;97597.97;;;21.21;47.14
61037;BME280;72210;47.076;15.430;2023-10-09T09:11:55;97592.56;;;20.87;47.97
61037;BME280;72210;47.076;15.430;2023-10-09T09:14:35;97587.09;;;20.70;48.02
61037;BME280;72210;47.076;15.430;2023-10-09T09:17:04;97585.28;;;20.43;49.18
61037;BME280;72210;47.076;15.430;2023-10-09T09:19:32;97577.13;;;20.08;50.49
61037;BME280;72210;47.076;15.430;2023-10-09T09:21:59;97577.66;;;19.84;50.27
61037;BME280;72210;47.076;15.430;2023-10-09T09:24:26;97568.97;;;19.54;50.93
61037;BME280;72210;47.076;15.430;2023-10-09T09:26:56;97581.94;;;19.28;51.83
61037;BME280;72210;47.076;15.430;2023-10-09T09:29:23;97577.22;;;19.02;53.05
61037;BME280;72210;47.076;15.430;2023-10-09T09:31:55;97585.66;;;18.57;53.57
61037;BME280;72210;47.076;15.430;2023-10-09T09:34:24;97577.94;;;18.15;55.15
61037;BME280;72210;47.076;15.430;2023-10-09T09:36:53;97572.75;;;18.04;56.40
61037;BME280;72210;47.076;15.430;2023-10-09T09:39:22;97564.34;;;18.29;56.80
61037;BME280;72210;47.076;15.430;2023-10-09T09:41:49;97558.44;;;18.57;55.35
61037;BME280;72210;47.076;15.430;2023-10-09T09:44:16;97572.66;;;19.14;54.31
61037;BME280;72210;47.076;15.430;2023-10-09T09:46:44;97555.66;;;19.36;53.78
61037;BME280;72210;47.076;15.430;2023-10-09T09:49:15;97551.25;;;20.02;51.66
61037;BME280;72210;47.076;15.430;2023-10-09T09:51:44;97549.38;;;20.68;48.96
61037;BME280;72210;47.076;15.430;2023-10-09T09:54:11;97539.69;;;20.95;48.64
61037;BME280;72210;47.076;15.430;2023-10-09T09:56:40;97548.91;;;20.91;48.99
61037;BME280;72210;47.076;15.430;2023-10-09T09:59:11;97547.06;;;21.80;47.07
61037;BME280;72210;47.076;15.430;2023-10-09T10:01:40;97542.53;;;22.57;45.59
61037;BME280;72210;47.076;15.430;2023-10-09T10:04:11;97551.53;;;23.39;43.31
61037;BME280;72210;47.076;15.430;2023-10-09T10:06:40;97528.38;;;24.20;41.12
61037;BME280;72210;47.076;15.430;2023-10-09T10:09:10;97537.88;;;25.38;38.95
61037;BME280;72210;47.076;15.430;2023-10-09T10:11:44;97533.91;;;26.39;36.82
61037;BME280;72210;47.076;15.430;2023-10-09T10:14:12;97530.31;;;27.33;35.26
61037;BME280;72210;47.076;15.430;2023-10-09T10:17:00;97533.69;;;27.76;34.36
61037;BME280;72210;47.076;15.430;2023-10-09T10:20:00;97533.53;;;27.85;33.61
61037;BME280;72210;47.076;15.430;2023-10-09T10:22:29;97535.28;;;28.06;33.04
61037;BME280;72210;47.076;15.430;2023-10-09T10:24:59;97544.03;;;29.36;32.12
61037;BME280;72210;47.076;15.430;2023-10-09T10:27:26;97524.13;;;29.98;29.88
61037;BME280;72210;47.076;15.430;2023-10-09T10:30:30;97506.41;;;30.35;29.20
61037;BME280;72210;47.076;15.430;2023-10-09T10:33:01;97515.84;;;31.15;28.34
61037;BME280;72210;47.076;15.430;2023-10-09T10:35:29;97505.94;;;31.96;27.23
61037;BME280;72210;47.076;15.430;2023-10-09T10:37:56;97517.38;;;32.89;26.51
61037;BME280;72210;47.076;15.430;2023-10-09T10:40:26;97511.22;;;33.24;25.40
61037;BME280;72210;47.076;15.430;2023-10-09T10:42:54;97508.16;;;32.67;26.18
61037;BME280;72210;47.076;15.430;2023-10-09T10:45:21;97490.75;;;32.02;26.77
61037;BME280;72210;47.076;15.430;2023-10-09T10:47:48;97494.72;;;32.48;26.51
61037;BME280;72210;47.076;15.430;2023-10-09T10:50:18;97492.06;;;33.85;24.54
61037;BME280;72210;47.076;15.430;2023-10-09T10:52:45;97494.25;;;34.86;23.63
61037;BME280;72210;47.076;15.430;2023-10-09T10:55:13;97500.00;;;35.41;23.47
61037;BME280;72210;47.076;15.430;2023-10-09T10:57:43;97493.69;;;35.74;22.64
61037;BME280;72210;47.076;15.430;2023-10-09T11:00:11;97464.38;;;35.27;22.96
61037;BME280;72210;47.076;15.430;2023-10-09T11:02:42;97473.03;;;34.95;23.19
61037;BME280;72210;47.076;15.430;2023-10-09T11:05:10;97470.59;;;35.28;22.97
61037;BME280;72210;47.076;15.430;2023-10-09T11:07:38;97455.31;;;35.21;22.65
61037;BME280;72210;47.076;15.430;2023-10-09T11:10:06;97462.00;;;34.22;23.67
61037;BME280;72210;47.076;15.430;2023-10-09T11:12:44;97462.72;;;34.63;23.13
61037;BME280;72210;47.076;15.430;2023-10-09T11:15:12;97447.47;;;35.03;23.35
61037;BME280;72210;47.076;15.430;2023-10-09T11:17:41;97453.59;;;34.98;23.13
61037;BME280;72210;47.076;15.430;2023-10-09T11:20:08;97437.13;;;34.83;23.04
61037;BME280;72210;47.076;15.430;2023-10-09T11:22:36;97447.69;;;33.69;24.19
61037;BME280;72210;47.076;15.430;2023-10-09T11:25:03;97440.50;;;33.22;24.68
61037;BME280;72210;47.076;15.430;2023-10-09T11:27:31;97438.59;;;33.35;24.85
61037;BME280;72210;47.076;15.430;2023-10-09T11:29:59;97430.50;;;33.35;24.37
61037;BME280;72210;47.076;15.430;2023-10-09T11:32:28;97432.69;;;33.61;24.80
61037;BME280;72210;47.076;15.430;2023-10-09T11:35:10;97436.31;;;34.82;23.56
61037;BME280;72210;47.076;15.430;2023-10-09T11:37:38;97413.97;;;34.58;23.53
61037;BME280;72210;47.076;15.430;2023-10-09T11:40:07;97433.69;;;35.04;23.15
61037;BME280;72210;47.076;15.430;2023-10-09T11:42:34;97427.56;;;36.20;22.43
61037;BME280;72210;47.076;15.430;2023-10-09T11:45:03;97411.91;;;36.81;21.10
61037;BME280;72210;47.076;15.430;2023-10-09T11:47:34;97414.13;;;36.57;21.50
61037;BME280;72210;47.076;15.430;2023-10-09T11:50:02;97410.25;;;36.21;22.04
61037;BME280;72210;47.076;15.430;2023-10-09T11:52:30;97412.25;;;35.37;22.72
61037;BME280;72210;47.076;15.430;2023-10-09T11:54:58;97403.13;;;34.24;23.48
61037;BME280;72210;47.076;15.430;2023-10-09T11:57:25;97416.69;;;33.19;24.66
61037;BME280;72210;47.076;15.430;2023-10-09T11:59:54;97390.59;;;32.24;25.87
61037;BME280;72210;47.076;15.430;2023-10-09T12:02:23;97406.78;;;30.94;27.19
61037;BME280;72210;47.076;15.430;2023-10-09T12:04:50;97391.72;;;30.04;27.92
61037;BME280;72210;47.076;15.430;2023-10-09T12:07:17;97397.38;;;29.30;29.27
61037;BME280;72210;47.076;15.430;2023-10-09T12:09:44;97396.81;;;28.68;30.17
61037;BME280;72210;47.076;15.430;2023-10-09T12:12:11;97382.16;;;28.51;30.45
61037;BME280;72210;47.076;15.430;2023-10-09T12:14:38;97387.47;;;28.17;30.88
61037;BME280;72210;47.076;15.430;2023-10-09T12:17:07;97372.16;;;27.91;32.04
61037;BME280;72210;47.076;15.430;2023-10-09T12:19:38;97377.16;;;27.46;32.62
61037;BME280;72210;47.076;15.430;2023-10-09T12:22:07;97398.25;;;26.99;33.26
61037;BME280;72210;47.076;15.430;2023-10-09T12:24:34;97381.81;;;26.74;33.98
61037;BME280;72210;47.076;15.430;2023-10-09T12:27:01;97374.63;;;26.24;34.49
61037;BME280;72210;47.076;15.430;2023-10-09T12:29:28;97366.09;;;25.77;35.82
61037;BME280;72210;47.076;15.430;2023-10-09T12:31:55;97369.38;;;25.43;35.86
61037;BME280;72210;47.076;15.430;2023-10-09T12:34:22;97390.72;;;25.28;36.90
61037;BME280;72210;47.076;15.430;2023-10-09T12:36:51;97379.22;;;24.83;37.74
61037;BME280;72210;47.076;15.430;2023-10-09T12:39:18;97370.91;;;24.78;38.21
61037;BME280;72210;47.076;15.430;2023-10-09T12:41:45;97379.75;;;24.93;38.07
61037;BME280;72210;47.076;15.430;2023-10-09T12:44:12;97366.72;;;24.83;38.21
61037;BME280;72210;47.076;15.430;2023-10-09T12:46:39;97371.00;;;24.69;38.17
61037;BME280;72210;47.076;15.430;2023-10-09T12:49:07;97374.25;;;24.80;39.06
61037;BME280;72210;47.076;15.430;2023-10-09T12:51:34;97380.38;;;24.95;38.94